Time;durP1;ratioP1;P1;durP2;ratioP2;P2;SDS_P1;SDS_P2;PMS_P1;PMS_P2;Temp;Humidity;BMP_temperature;BMP_pressure;BME280_temperature;BME280_humidity;BME280_pressure;Samples;Min_cycle;Max_cycle;Signal;HPM_P1;HPM_P2
2023/03/12 00:01:58;;;;;;;;;;;;;;;;;;4978259;28;20251;-90
2023/03/12 00:04:24;;;;;;;;;;;;;;;;;;4961767;28;19944;-91
2023/03/12 00:06:50;;;;;;;;;;;;;;;;;;4961751;28;20362;-90
2023/03/12 00:09:17;;;;;;;;;;;;;;;;;;4961377;28;20433;-90
2023/03/12 00:11:43;;;;;;;;;;;;;;;;;;4976444;28;19926;-90
2023/03/12 00:14:09;;;;;;;;;;;;;;;;;;4977227;28;19922;-90
2023/03/12 00:16:37;;;;;;;;;;;;;;;;;;4961462;28;19972;-90
2023/03/12 00:19:03;;;;;;;;;;;;;;;;;;4961205;28;20399;-90
2023/03/12 00:21:28;;;;;;;;;;;;;;;;;;4990400;28;19984;-91
2023/03/12 00:23:57;;;;;;;;;;;;;;;;;;4993492;28;19921;-92
2023/03/12 00:26:29;;;;;;;;;;;;;;;;;;4993748;28;19928;-90
2023/03/12 00:28:55;;;;;;;;;;;;;;;;;;4977081;28;19922;-90
2023/03/12 00:31:26;;;;;;;;;;;;;;;;;;4977770;28;19921;-90
2023/03/12 00:34:01;;;;;;;;;;;;;;;;;;4993346;28;19926;-89
2023/03/12 00:36:27;;;;;;;;;;;;;;;;;;4992718;28;20008;-89
2023/03/12 00:38:53;;;;;;;;;;;;;;;;;;4976526;28;19922;-89
2023/03/12 00:41:19;;;;;;;;;;;;;;;;;;4976625;28;19929;-89
2023/03/12 00:43:45;;;;;;;;;;;;;;;;;;4976841;28;19921;-90
2023/03/12 00:46:13;;;;;;;;;;;;;;;;;;4992929;28;20375;-90
2023/03/12 00:48:38;;;;;;;;;;;;;;;;;;4976814;28;20378;-90
2023/03/12 00:51:04;;;;;;;;;;;;;;;;;;4992995;28;19929;-91
2023/03/12 00:53:30;;;;;;;;;;;;;;;;;;4976682;28;19929;-91
2023/03/12 00:55:56;;;;;;;;;;;;;;;;;;4976973;28;19921;-91
2023/03/12 00:58:22;;;;;;;;;;;;;;;;;;4976812;28;20413;-91
2023/03/12 01:00:49;;;;;;;;;;;;;;;;;;4976838;28;19941;-91
2023/03/12 01:03:16;;;;;;;;;;;;;;;;;;4976420;28;20371;-92
2023/03/12 01:05:44;;;;;;;;;;;;;;;;;;4976808;28;19925;-91
2023/03/12 01:08:09;;;;;;;;;;;;;;;;;;4976510;28;20383;-91
2023/03/12 01:10:37;;;;;;;;;;;;;;;;;;4976588;28;19929;-91
2023/03/12 01:13:02;;;;;;;;;;;;;;;;;;4976943;28;19932;-91
2023/03/12 01:15:30;;;;;;;;;;;;;;;;;;4978900;28;19957;-91
2023/03/12 01:17:55;;;;;;;;;;;;;;;;;;4976548;28;19922;-92
2023/03/12 01:20:22;;;;;;;;;;;;;;;;;;4976261;28;19932;-92
2023/03/12 01:22:49;;;;;;;;;;;;;;;;;;4976150;28;19925;-92
2023/03/12 01:25:15;;;;;;;;;;;;;;;;;;4976255;28;20371;-91
2023/03/12 01:27:40;;;;;;;;;;;;;;;;;;4976188;28;19929;-90
2023/03/12 01:30:06;;;;;;;;;;;;;;;;;;4975949;28;19968;-90
2023/03/12 01:32:32;;;;;;;;;;;;;;;;;;4992203;28;19930;-90
2023/03/12 01:34:59;;;;;;;;;;;;;;;;;;4976007;28;19921;-90
2023/03/12 01:37:25;;;;;;;;;;;;;;;;;;4975905;28;20379;-90
2023/03/12 01:39:51;;;;;;;;;;;;;;;;;;4975761;28;19952;-90
2023/03/12 01:42:16;;;;;;;;;;;;;;;;;;4975936;28;19922;-91
2023/03/12 01:44:44;;;;;;;;;;;;;;;;;;4978504;28;19937;-90
2023/03/12 01:47:10;;;;;;;;;;;;;;;;;;4979255;28;20392;-91
2023/03/12 01:49:36;;;;;;;;;;;;;;;;;;4995014;28;19929;-91
2023/03/12 01:52:02;;;;;;;;;;;;;;;;;;4979141;28;19926;-90
2023/03/12 01:54:28;;;;;;;;;;;;;;;;;;4979084;28;19921;-90
2023/03/12 01:56:54;;;;;;;;;;;;;;;;;;4979128;28;19953;-91
2023/03/12 01:59:20;;;;;;;;;;;;;;;;;;4979167;28;19972;-92
2023/03/12 02:01:51;;;;;;;;;;;;;;;;;;4995043;28;19922;-92
2023/03/12 02:04:29;;;;;;;;;;;;;;;;;;4995738;28;19964;-92
2023/03/12 02:06:55;;;;;;;;;;;;;;;;;;4979523;28;19968;-92
2023/03/12 02:09:22;;;;;;;;;;;;;;;;;;4979489;28;19921;-92
2023/03/12 02:11:48;;;;;;;;;;;;;;;;;;4979738;28;20366;-92
2023/03/12 02:14:15;;;;;;;;;;;;;;;;;;4979402;28;19921;-92
2023/03/12 02:16:41;;;;;;;;;;;;;;;;;;4979357;28;19922;-91
2023/03/12 02:19:07;;;;;;;;;;;;;;;;;;4979475;28;19928;-92
2023/03/12 02:21:36;;;;;;;;;;;;;;;;;;4979292;28;19929;-92
2023/03/12 02:24:02;;;;;;;;;;;;;;;;;;4995603;28;19932;-92
2023/03/12 02:26:28;;;;;;;;;;;;;;;;;;4979389;28;19921;-92
2023/03/12 02:28:54;;;;;;;;;;;;;;;;;;4980004;28;20071;-92
2023/03/12 02:31:20;;;;;;;;;;;;;;;;;;4979953;28;20081;-90
2023/03/12 02:33:46;;;;;;;;;;;;;;;;;;4977872;28;20393;-91
2023/03/12 02:36:12;;;;;;;;;;;;;;;;;;4997478;28;19925;-91
2023/03/12 02:38:39;;;;;;;;;;;;;;;;;;4982601;28;19921;-91
2023/03/12 02:41:05;;;;;;;;;;;;;;;;;;4982526;28;19925;-90
2023/03/12 02:43:31;;;;;;;;;;;;;;;;;;4982612;28;19928;-91
2023/03/12 02:45:57;;;;;;;;;;;;;;;;;;4982644;28;19925;-90
2023/03/12 02:48:23;;;;;;;;;;;;;;;;;;4983770;28;20329;-90
2023/03/12 02:50:49;;;;;;;;;;;;;;;;;;4982842;28;20366;-90
2023/03/12 02:53:15;;;;;;;;;;;;;;;;;;4999024;28;20362;-90
2023/03/12 02:55:42;;;;;;;;;;;;;;;;;;4983397;28;19976;-91
2023/03/12 02:58:08;;;;;;;;;;;;;;;;;;4982752;28;20021;-92
2023/03/12 03:00:33;;;;;;;;;;;;;;;;;;4982059;28;20356;-91
2023/03/12 03:02:59;;;;;;;;;;;;;;;;;;4982569;28;20000;-92
2023/03/12 03:05:25;;;;;;;;;;;;;;;;;;4981911;28;19945;-90
2023/03/12 03:07:51;;;;;;;;;;;;;;;;;;4997889;28;19929;-90
2023/03/12 03:10:17;;;;;;;;;;;;;;;;;;4982338;28;19922;-91
2023/03/12 03:12:43;;;;;;;;;;;;;;;;;;4982248;28;19921;-90
2023/03/12 03:15:09;;;;;;;;;;;;;;;;;;4981431;28;20016;-90
2023/03/12 03:17:35;;;;;;;;;;;;;;;;;;4981734;28;19992;-90
2023/03/12 03:20:01;;;;;;;;;;;;;;;;;;4981632;28;20053;-90
2023/03/12 03:22:27;;;;;;;;;;;;;;;;;;4981556;28;19945;-91
2023/03/12 03:25:02;;;;;;;;;;;;;;;;;;4982643;28;19921;-90
2023/03/12 03:27:27;;;;;;;;;;;;;;;;;;4981202;28;19983;-91
2023/03/12 03:29:53;;;;;;;;;;;;;;;;;;4981842;28;20016;-91
2023/03/12 03:32:19;;;;;;;;;;;;;;;;;;4998209;28;19925;-90
2023/03/12 03:34:45;;;;;;;;;;;;;;;;;;4981113;28;19968;-90
2023/03/12 03:37:11;;;;;;;;;;;;;;;;;;4981012;28;19921;-90
2023/03/12 03:39:37;;;;;;;;;;;;;;;;;;4981135;28;19926;-90
2023/03/12 03:42:03;;;;;;;;;;;;;;;;;;4981263;28;19922;-90
2023/03/12 03:44:29;;;;;;;;;;;;;;;;;;4981057;28;19921;-90
2023/03/12 03:46:55;;;;;;;;;;;;;;;;;;4980437;28;20275;-90
2023/03/12 03:49:22;;;;;;;;;;;;;;;;;;4981064;28;20012;-89
2023/03/12 03:51:50;;;;;;;;;;;;;;;;;;4980976;28;20267;-89
2023/03/12 03:54:16;;;;;;;;;;;;;;;;;;4980873;28;19922;-89
2023/03/12 03:56:46;;;;;;;;;;;;;;;;;;4981042;28;19967;-89
2023/03/12 03:59:12;;;;;;;;;;;;;;;;;;4981360;28;20310;-89
2023/03/12 04:01:38;;;;;;;;;;;;;;;;;;4981856;28;19921;-89
2023/03/12 04:04:04;;;;;;;;;;;;;;;;;;4983481;28;19921;-90
2023/03/12 04:06:30;;;;;;;;;;;;;;;;;;4997791;28;19921;-89
2023/03/12 04:08:56;;;;;;;;;;;;;;;;;;4980775;28;20293;-90
2023/03/12 04:11:22;;;;;;;;;;;;;;;;;;4980783;28;19980;-90
2023/03/12 04:13:48;;;;;;;;;;;;;;;;;;4980664;28;20004;-89
2023/03/12 04:16:13;;;;;;;;;;;;;;;;;;4980242;28;19965;-89
2023/03/12 04:18:39;;;;;;;;;;;;;;;;;;4980255;28;19922;-89
2023/03/12 04:21:05;;;;;;;;;;;;;;;;;;4980138;28;19925;-90
2023/03/12 04:23:31;;;;;;;;;;;;;;;;;;4996691;28;20004;-90
2023/03/12 04:25:57;;;;;;;;;;;;;;;;;;4980490;28;19928;-90
2023/03/12 04:28:23;;;;;;;;;;;;;;;;;;4980508;28;19940;-90
2023/03/12 04:30:49;;;;;;;;;;;;;;;;;;4996592;28;19925;-90
2023/03/12 04:33:16;;;;;;;;;;;;;;;;;;4980273;28;19921;-90
2023/03/12 04:35:42;;;;;;;;;;;;;;;;;;4980117;28;20405;-90
2023/03/12 04:38:09;;;;;;;;;;;;;;;;;;4979878;28;19921;-89
2023/03/12 04:40:35;;;;;;;;;;;;;;;;;;4979749;28;20032;-89
2023/03/12 04:43:01;;;;;;;;;;;;;;;;;;4980457;28;19945;-90
2023/03/12 04:45:27;;;;;;;;;;;;;;;;;;4996006;28;19934;-89
2023/03/12 04:47:53;;;;;;;;;;;;;;;;;;4996136;28;20020;-90
2023/03/12 04:50:19;;;;;;;;;;;;;;;;;;4979557;28;20016;-90
2023/03/12 04:52:45;;;;;;;;;;;;;;;;;;4979722;28;19921;-89
2023/03/12 04:55:11;;;;;;;;;;;;;;;;;;4979566;28;20008;-89
2023/03/12 04:57:37;;;;;;;;;;;;;;;;;;4979275;28;19925;-89
2023/03/12 05:00:08;;;;;;;;;;;;;;;;;;4979638;28;19940;-89
2023/03/12 05:02:34;;;;;;;;;;;;;;;;;;4995840;28;19922;-89
2023/03/12 05:05:00;;;;;;;;;;;;;;;;;;4979385;28;19929;-89
2023/03/12 05:07:26;;;;;;;;;;;;;;;;;;4979679;28;19929;-90
2023/03/12 05:09:52;;;;;;;;;;;;;;;;;;4995591;28;19925;-90
2023/03/12 05:12:18;;;;;;;;;;;;;;;;;;4979512;28;19929;-89
2023/03/12 05:14:44;;;;;;;;;;;;;;;;;;4979854;28;19921;-89
2023/03/12 05:17:10;;;;;;;;;;;;;;;;;;4979890;28;19975;-89
2023/03/12 05:19:37;;;;;;;;;;;;;;;;;;4979858;28;20516;-89
2023/03/12 05:22:03;;;;;;;;;;;;;;;;;;4981283;28;19925;-90
2023/03/12 05:24:29;;;;;;;;;;;;;;;;;;4980586;28;20285;-89
2023/03/12 05:26:55;;;;;;;;;;;;;;;;;;4980740;28;20024;-88
2023/03/12 05:29:21;;;;;;;;;;;;;;;;;;4996217;28;19968;-89
2023/03/12 05:31:46;;;;;;;;;;;;;;;;;;4979214;28;19922;-88
2023/03/12 05:34:12;;;;;;;;;;;;;;;;;;4995893;28;19925;-88
2023/03/12 05:36:38;;;;;;;;;;;;;;;;;;4995427;28;19971;-88
2023/03/12 05:39:04;;;;;;;;;;;;;;;;;;4979314;28;19944;-88
2023/03/12 05:41:30;;;;;;;;;;;;;;;;;;4997017;28;19928;-89
2023/03/12 05:43:56;;;;;;;;;;;;;;;;;;4980984;28;20303;-90
2023/03/12 05:46:22;;;;;;;;;;;;;;;;;;4979827;28;20060;-93
2023/03/12 05:48:48;;;;;;;;;;;;;;;;;;4981085;28;19999;-91
2023/03/12 05:51:14;;;;;;;;;;;;;;;;;;4979608;28;19936;-89
2023/03/12 05:53:40;;;;;;;;;;;;;;;;;;4978813;28;19925;-89
2023/03/12 05:56:06;;;;;;;;;;;;;;;;;;4978794;28;19921;-89
2023/03/12 05:58:33;;;;;;;;;;;;;;;;;;4978833;28;19933;-89
2023/03/12 06:00:59;;;;;;;;;;;;;;;;;;4978970;28;19937;-89
2023/03/12 06:03:25;;;;;;;;;;;;;;;;;;4978669;28;19922;-89
2023/03/12 06:05:54;;;;;;;;;;;;;;;;;;4978594;28;19922;-89
2023/03/12 06:08:19;;;;;;;;;;;;;;;;;;4978954;28;19921;-89
2023/03/12 06:10:46;;;;;;;;;;;;;;;;;;4982030;28;19927;-90
2023/03/12 06:13:12;;;;;;;;;;;;;;;;;;4982696;28;20412;-90
2023/03/12 06:15:39;;;;;;;;;;;;;;;;;;4999914;28;19928;-90
2023/03/12 06:18:09;;;;;;;;;;;;;;;;;;4999365;28;19921;-90
2023/03/12 06:20:35;;;;;;;;;;;;;;;;;;4982457;28;19936;-90
2023/03/12 06:23:02;;;;;;;;;;;;;;;;;;4984522;28;19921;-91
2023/03/12 06:25:28;;;;;;;;;;;;;;;;;;5003071;28;20037;-90
2023/03/12 06:27:55;;;;;;;;;;;;;;;;;;5000245;28;19922;-91
2023/03/12 06:30:36;;;;;;;;;;;;;;;;;;5019248;28;19944;-90
2023/03/12 06:33:07;;;;;;;;;;;;;;;;;;5003795;28;19922;-91
2023/03/12 06:35:33;;;;;;;;;;;;;;;;;;4993341;28;19945;-91
2023/03/12 06:38:02;;;;;;;;;;;;;;;;;;4995897;28;20394;-91
2023/03/12 06:40:31;;;;;;;;;;;;;;;;;;4983132;28;19933;-90
2023/03/12 06:43:10;;;;;;;;;;;;;;;;;;;;;
2023/03/12 06:46:08;;;;;;;;;;;;;;;;;;4986565;28;20025;-92
2023/03/12 06:48:55;;;;;;;;;;;;;;;;;;;;;
2023/03/12 06:51:27;;;;;;;;;;;;;;;;;;4995489;28;19922;-93
2023/03/12 06:54:10;;;;;;;;;;;;;;;;;;4995015;28;19921;-91
2023/03/12 06:56:36;;;;;;;;;;;;;;;;;;4978569;28;19984;-90
2023/03/12 06:59:03;;;;;;;;;;;;;;;;;;4994832;28;19926;-90
2023/03/12 07:01:30;;;;;;;;;;;;;;;;;;4979269;28;19929;-91
2023/03/12 07:03:56;;;;;;;;;;;;;;;;;;4979239;28;19922;-90
2023/03/12 07:06:22;;;;;;;;;;;;;;;;;;4979178;28;20412;-91
2023/03/12 07:08:48;;;;;;;;;;;;;;;;;;4978629;28;19973;-90
2023/03/12 07:11:17;;;;;;;;;;;;;;;;;;4994589;28;19922;-90
2023/03/12 07:13:43;;;;;;;;;;;;;;;;;;4978221;28;19925;-90
2023/03/12 07:16:09;;;;;;;;;;;;;;;;;;4978248;28;19928;-90
2023/03/12 07:18:35;;;;;;;;;;;;;;;;;;4978398;28;19921;-91
2023/03/12 07:21:01;;;;;;;;;;;;;;;;;;4993555;28;20298;-90
2023/03/12 07:23:27;;;;;;;;;;;;;;;;;;4978393;28;19921;-91
2023/03/12 07:26:02;;;;;;;;;;;;;;;;;;4995406;28;19952;-91
2023/03/12 07:28:30;;;;;;;;;;;;;;;;;;4978519;28;19922;-90
2023/03/12 07:30:57;;;;;;;;;;;;;;;;;;4978266;28;20183;-90
2023/03/12 07:33:23;;;;;;;;;;;;;;;;;;4982147;28;20016;-89
2023/03/12 07:35:49;;;;;;;;;;;;;;;;;;4958452;28;19977;-90
2023/03/12 07:38:15;;;;;;;;;;;;;;;;;;4981465;28;20016;-89
2023/03/12 07:40:41;;;;;;;;;;;;;;;;;;4972073;28;19968;-90
2023/03/12 07:43:11;;;;;;;;;;;;;;;;;;4978027;28;19925;-91
2023/03/12 07:45:37;;;;;;;;;;;;;;;;;;4977670;28;20387;-91
2023/03/12 07:48:03;;;;;;;;;;;;;;;;;;4978594;28;19921;-92
2023/03/12 07:50:32;;;;;;;;;;;;;;;;;;4978739;28;20390;-93
2023/03/12 07:52:58;;;;;;;;;;;;;;;;;;4978587;28;19985;-92
2023/03/12 07:55:24;;;;;;;;;;;;;;;;;;4978772;28;20346;-93
2023/03/12 07:57:52;;;;;;;;;;;;;;;;;;4981607;28;19922;-93
2023/03/12 08:00:18;;;;;;;;;;;;;;;;;;4978500;28;19953;-93
2023/03/12 08:02:44;;;;;;;;;;;;;;;;;;4980037;28;19921;-93
2023/03/12 08:05:11;;;;;;;;;;;;;;;;;;4980115;28;20389;-93
2023/03/12 08:07:39;;;;;;;;;;;;;;;;;;4978032;28;19993;-92
2023/03/12 08:10:05;;;;;;;;;;;;;;;;;;4977697;28;19922;-92
2023/03/12 08:12:32;;;;;;;;;;;;;;;;;;4977478;28;19921;-91
2023/03/12 08:14:58;;;;;;;;;;;;;;;;;;4977785;28;20015;-91
2023/03/12 08:17:24;;;;;;;;;;;;;;;;;;4960860;28;20290;-91
2023/03/12 08:19:50;;;;;;;;;;;;;;;;;;4977325;28;19926;-92
2023/03/12 08:22:16;;;;;;;;;;;;;;;;;;4976765;28;19995;-91
2023/03/12 08:24:42;;;;;;;;;;;;;;;;;;4976136;28;19922;-92
2023/03/12 08:27:11;;;;;;;;;;;;;;;;;;4975950;28;20271;-92
2023/03/12 08:29:40;;;;;;;;;;;;;;;;;;4959827;28;19950;-90
2023/03/12 08:32:06;;;;;;;;;;;;;;;;;;4960927;28;19928;-92
2023/03/12 08:34:32;;;;;;;;;;;;;;;;;;4960280;28;19926;-91
2023/03/12 08:37:03;;;;;;;;;;;;;;;;;;4960520;28;19921;-92
2023/03/12 08:39:29;;;;;;;;;;;;;;;;;;4959716;28;19926;-92
2023/03/12 08:41:55;;;;;;;;;;;;;;;;;;4960466;28;19922;-91
2023/03/12 08:44:23;;;;;;;;;;;;;;;;;;4960298;28;19929;-92
2023/03/12 08:46:50;;;;;;;;;;;;;;;;;;4960111;28;19933;-91
2023/03/12 08:49:22;;;;;;;;;;;;;;;;;;4965029;28;19921;-93
2023/03/12 08:51:51;;;;;;;;;;;;;;;;;;4961401;28;20281;-94
2023/03/12 08:54:17;;;;;;;;;;;;;;;;;;4961877;28;20330;-93
2023/03/12 08:56:50;;;;;;;;;;;;;;;;;;4961488;28;19926;-95
2023/03/12 08:59:19;;;;;;;;;;;;;;;;;;4961238;28;19922;-94
2023/03/12 09:01:45;;;;;;;;;;;;;;;;;;4960811;28;19975;-94
2023/03/12 09:04:11;;;;;;;;;;;;;;;;;;4960947;28;19961;-94
2023/03/12 09:06:37;;;;;;;;;;;;;;;;;;4961222;28;19973;-94
2023/03/12 09:09:04;;;;;;;;;;;;;;;;;;4961638;28;20370;-93
2023/03/12 09:11:30;;;;;;;;;;;;;;;;;;4977196;28;19928;-94
2023/03/12 09:14:01;;;;;;;;;;;;;;;;;;4961806;28;20338;-95
2023/03/12 09:16:31;;;;;;;;;;;;;;;;;;4963643;28;19922;-95
2023/03/12 09:18:57;;;;;;;;;;;;;;;;;;4961212;28;19944;-93
2023/03/12 09:21:26;;;;;;;;;;;;;;;;;;4960988;28;19925;-96
2023/03/12 09:24:01;;;;;;;;;;;;;;;;;;4978109;28;20325;-95
2023/03/12 09:26:27;;;;;;;;;;;;;;;;;;4961450;28;19935;-96
2023/03/12 09:28:58;;;;;;;;;;;;;;;;;;4961315;28;19969;-94
2023/03/12 09:31:28;;;;;;;;;;;;;;;;;;4961339;28;19921;-95
2023/03/12 09:42:17;;;;;;;;;;;;;;;;;;5786206;23;19926;-95
2023/03/12 10:02:08;;;;;;;;;;;;;;;;;;4991203;28;19981;-96
2023/03/12 10:04:40;;;;;;;;;;;;;;;;;;4990020;28;19963;-96
2023/03/12 10:07:10;;;;;;;;;;;;;;;;;;4970065;28;19925;-96
2023/03/12 10:10:15;;;;;;;;;;;;;;;;;;4963336;29;20011;-96
2023/03/12 10:15:21;;;;;;;;;;;;;;;;;;5043676;23;19925;-96
2023/03/12 10:17:47;;;;;;;;;;;;;;;;;;4987243;28;20387;-96
2023/03/12 10:20:13;;;;;;;;;;;;;;;;;;4968427;28;20024;-96
2023/03/12 10:23:03;;;;;;;;;;;;;;;;;;4991920;28;19932;-96
2023/03/12 10:46:31;;;;;;;;;;;;;;;;;;;;;
2023/03/12 10:48:57;;;;;;;;;;;;;;;;;;4984032;28;19928;-95
2023/03/12 10:51:31;;;;;;;;;;;;;;;;;;4985089;28;19922;-96
2023/03/12 10:54:12;;;;;;;;;;;;;;;;;;4954128;28;20291;-96
2023/03/12 10:56:54;;;;;;;;;;;;;;;;;;4990436;28;19909;-96
2023/03/12 10:59:20;;;;;;;;;;;;;;;;;;4982228;28;19926;-91
2023/03/12 11:15:19;;;;;;;;;;;;;;;;;;5490224;23;20016;-96
2023/03/12 11:17:45;;;;;;;;;;;;;;;;;;4988533;28;19921;-96
2023/03/12 11:20:33;;;;;;;;;;;;;;;;;;4990268;28;19953;-95
2023/03/12 11:23:09;;;;;;;;;;;;;;;;;;5000985;28;19976;-96
2023/03/12 11:29:07;;;;;;;;;;;;;;;;;;;;;
2023/03/12 11:37:29;;;;;;;;;;;;;;;;;;4986980;28;20739;-94
2023/03/12 11:39:57;;;;;;;;;;;;;;;;;;4997772;28;20024;-91
2023/03/12 11:42:23;;;;;;;;;;;;;;;;;;4982088;28;20425;-90
2023/03/12 11:44:49;;;;;;;;;;;;;;;;;;4997438;28;19944;-92
2023/03/12 11:47:15;;;;;;;;;;;;;;;;;;4981794;28;19968;-92
2023/03/12 11:49:41;;;;;;;;;;;;;;;;;;4981466;28;20377;-92
2023/03/12 11:52:08;;;;;;;;;;;;;;;;;;4980299;28;19979;-91
2023/03/12 11:54:34;;;;;;;;;;;;;;;;;;4981283;28;20421;-94
2023/03/12 11:57:02;;;;;;;;;;;;;;;;;;4980916;28;19968;-91
2023/03/12 12:04:40;;;;;;;;;;;;;;;;;;5204566;23;19925;-92
2023/03/12 12:07:10;;;;;;;;;;;;;;;;;;4958851;28;19922;-95
2023/03/12 12:09:46;;;;;;;;;;;;;;;;;;4984202;28;19926;-93
2023/03/12 12:12:12;;;;;;;;;;;;;;;;;;4968301;28;19977;-96
2023/03/12 12:14:39;;;;;;;;;;;;;;;;;;4966505;28;19994;-96
2023/03/12 12:17:17;;;;;;;;;;;;;;;;;;4965807;28;19922;-95
2023/03/12 12:19:51;;;;;;;;;;;;;;;;;;4967593;28;19937;-96
2023/03/12 12:22:20;;;;;;;;;;;;;;;;;;4979276;28;19929;-94
2023/03/12 12:24:46;;;;;;;;;;;;;;;;;;4962946;28;19922;-95
2023/03/12 12:37:37;;;;;;;;;;;;;;;;;;5558160;23;19965;-93
2023/03/12 12:40:07;;;;;;;;;;;;;;;;;;4963261;28;19932;-91
2023/03/12 12:42:34;;;;;;;;;;;;;;;;;;4961577;28;19929;-94
2023/03/12 12:45:02;;;;;;;;;;;;;;;;;;4977592;28;20051;-96
2023/03/12 12:47:28;;;;;;;;;;;;;;;;;;4961432;28;19968;-92
2023/03/12 12:49:56;;;;;;;;;;;;;;;;;;4977074;28;20244;-91
2023/03/12 12:52:23;;;;;;;;;;;;;;;;;;4976043;28;19922;-91
2023/03/12 12:54:55;;;;;;;;;;;;;;;;;;4962266;28;19925;-95
2023/03/12 12:57:21;;;;;;;;;;;;;;;;;;4967680;28;19922;-92
2023/03/12 13:33:50;;;;;;;;;;;;;;;;;;5402464;23;19930;-90
2023/03/12 13:36:22;;;;;;;;;;;;;;;;;;4971641;28;19948;-89
2023/03/12 13:41:51;;;;;;;;;;;;;;;;;;4995390;28;20016;-92
2023/03/12 13:44:17;;;;;;;;;;;;;;;;;;4979189;28;19921;-92
2023/03/12 13:46:58;;;;;;;;;;;;;;;;;;5012862;28;19921;-91
2023/03/12 13:49:27;;;;;;;;;;;;;;;;;;4979670;28;20186;-92
2023/03/12 13:51:54;;;;;;;;;;;;;;;;;;4995605;28;19921;-91
2023/03/12 13:54:29;;;;;;;;;;;;;;;;;;5012515;28;19922;-90
2023/03/12 13:56:55;;;;;;;;;;;;;;;;;;4995334;28;20315;-91
2023/03/12 13:59:28;;;;;;;;;;;;;;;;;;4996471;28;20405;-91
2023/03/12 14:02:39;;;;;;;;;;;;;;;;;;4999759;28;19921;-94
2023/03/12 14:05:11;;;;;;;;;;;;;;;;;;4982470;28;19928;-91
2023/03/12 14:07:39;;;;;;;;;;;;;;;;;;4996299;28;19921;-93
2023/03/12 14:10:14;;;;;;;;;;;;;;;;;;4997497;28;19972;-94
2023/03/12 14:28:45;;;;;;;;;;;;;;;;;;5597998;23;19992;-94
2023/03/12 14:31:11;;;;;;;;;;;;;;;;;;4961017;28;19922;-93
2023/03/12 14:36:52;;;;;;;;;;;;;;;;;;4998490;28;19920;-96
2023/03/12 14:39:21;;;;;;;;;;;;;;;;;;4964660;28;20025;-94
2023/03/12 14:42:10;;;;;;;;;;;;;;;;;;4980972;28;19973;-95
2023/03/12 15:18:31;;;;;;;;;;;;;;;;;;5731892;23;20010;-94
2023/03/12 15:21:37;;;;;;;;;;;;;;;;;;4974114;29;19929;-94
2023/03/12 15:32:19;;;;;;;;;;;;;;;;;;5271206;23;19926;-95
2023/03/12 15:35:08;;;;;;;;;;;;;;;;;;4960172;28;19933;-96
2023/03/12 15:43:28;;;;;;;;;;;;;;;;;;4976135;28;19920;-94
2023/03/12 15:45:54;;;;;;;;;;;;;;;;;;4943199;28;19922;-95
2023/03/12 15:48:20;;;;;;;;;;;;;;;;;;4943204;28;19929;-93
2023/03/12 15:50:46;;;;;;;;;;;;;;;;;;4943287;28;19926;-91
2023/03/12 15:53:12;;;;;;;;;;;;;;;;;;4942843;28;19973;-93
2023/03/12 15:58:27;;;;;;;;;;;;;;;;;;5059468;22;20008;-92
2023/03/12 16:00:53;;;;;;;;;;;;;;;;;;4978376;28;19976;-94
2023/03/12 16:03:19;;;;;;;;;;;;;;;;;;4962520;28;19922;-94
2023/03/12 16:05:48;;;;;;;;;;;;;;;;;;4978984;28;20012;-94
2023/03/12 16:16:23;;;;;;;;;;;;;;;;;;4984672;26;19926;-95
2023/03/12 16:18:58;;;;;;;;;;;;;;;;;;4948719;28;19922;-96
2023/03/12 16:24:22;;;;;;;;;;;;;;;;;;4945915;28;20335;-96
2023/03/12 16:40:10;;;;;;;;;;;;;;;;;;4993513;28;19926;-94
2023/03/12 16:42:36;;;;;;;;;;;;;;;;;;4962164;28;19928;-94
2023/03/12 16:45:02;;;;;;;;;;;;;;;;;;4962579;28;19922;-92
2023/03/12 16:47:31;;;;;;;;;;;;;;;;;;4963955;28;19928;-93
2023/03/12 16:50:17;;;;;;;;;;;;;;;;;;4978724;28;20392;-95
2023/03/12 16:52:49;;;;;;;;;;;;;;;;;;4962714;28;19984;-95
2023/03/12 16:55:15;;;;;;;;;;;;;;;;;;4960497;28;19922;-94
2023/03/12 17:09:26;;;;;;;;;;;;;;;;;;4890275;29;19987;-95
2023/03/12 17:14:55;;;;;;;;;;;;;;;;;;4951873;28;19922;-96
2023/03/12 17:38:07;;;;;;;;;;;;;;;;;;5065132;23;19929;-95
2023/03/12 17:40:37;;;;;;;;;;;;;;;;;;4974622;28;19932;-94
2023/03/12 17:43:03;;;;;;;;;;;;;;;;;;4960284;28;19969;-96
2023/03/12 17:45:29;;;;;;;;;;;;;;;;;;4964842;28;19972;-96
2023/03/12 17:48:05;;;;;;;;;;;;;;;;;;4988924;28;20323;-96
2023/03/12 17:53:35;;;;;;;;;;;;;;;;;;4999131;28;19920;-92
2023/03/12 17:56:08;;;;;;;;;;;;;;;;;;5023186;23;20361;-93
2023/03/12 17:58:36;;;;;;;;;;;;;;;;;;4977622;28;19922;-93
2023/03/12 18:01:02;;;;;;;;;;;;;;;;;;4961076;28;20280;-91
2023/03/12 18:03:30;;;;;;;;;;;;;;;;;;4961294;28;19929;-93
2023/03/12 18:06:06;;;;;;;;;;;;;;;;;;4978480;28;19925;-93
2023/03/12 18:08:32;;;;;;;;;;;;;;;;;;4963707;28;19937;-91
2023/03/12 18:10:58;;;;;;;;;;;;;;;;;;4963258;28;19968;-91
2023/03/12 18:13:24;;;;;;;;;;;;;;;;;;4963412;28;20378;-91
2023/03/12 18:15:56;;;;;;;;;;;;;;;;;;4963949;28;19926;-92
2023/03/12 18:18:42;;;;;;;;;;;;;;;;;;4980717;28;19922;-94
2023/03/12 18:27:26;;;;;;;;;;;;;;;;;;6060701;23;19931;-91
2023/03/12 18:29:52;;;;;;;;;;;;;;;;;;4980107;28;19969;-91
2023/03/12 18:32:18;;;;;;;;;;;;;;;;;;4964909;28;19929;-92
2023/03/12 18:34:47;;;;;;;;;;;;;;;;;;4981830;28;20290;-93
2023/03/12 18:37:13;;;;;;;;;;;;;;;;;;4966146;28;19921;-91
2023/03/12 18:39:39;;;;;;;;;;;;;;;;;;4965687;28;19928;-91
2023/03/12 18:42:05;;;;;;;;;;;;;;;;;;4964654;28;20355;-91
2023/03/12 18:44:31;;;;;;;;;;;;;;;;;;4963703;28;20441;-92
2023/03/12 18:47:00;;;;;;;;;;;;;;;;;;4964157;28;19929;-93
2023/03/12 18:49:26;;;;;;;;;;;;;;;;;;4964590;28;20297;-92
2023/03/12 18:51:54;;;;;;;;;;;;;;;;;;4963424;28;20129;-92
2023/03/12 18:54:20;;;;;;;;;;;;;;;;;;4963599;28;19928;-93
2023/03/12 18:56:46;;;;;;;;;;;;;;;;;;4962700;28;20356;-90
2023/03/12 18:59:22;;;;;;;;;;;;;;;;;;4964044;28;19980;-96
2023/03/12 19:20:41;;;;;;;;;;;;;;;;;;5326156;23;19932;-95
2023/03/12 19:23:26;;;;;;;;;;;;;;;;;;4979074;28;19922;-94
2023/03/12 19:25:52;;;;;;;;;;;;;;;;;;4962834;28;20390;-96
2023/03/12 19:28:18;;;;;;;;;;;;;;;;;;4966758;28;20080;-96
2023/03/12 19:30:44;;;;;;;;;;;;;;;;;;4962510;28;20379;-95
2023/03/12 19:33:35;;;;;;;;;;;;;;;;;;4981349;28;19936;-96
2023/03/12 19:36:02;;;;;;;;;;;;;;;;;;4980268;28;19922;-96
2023/03/12 19:38:46;;;;;;;;;;;;;;;;;;4989344;28;19921;-96
2023/03/12 19:56:47;;;;;;;;;;;;;;;;;;5844984;23;19926;-92
2023/03/12 19:59:16;;;;;;;;;;;;;;;;;;4963553;28;19941;-93
2023/03/12 20:01:42;;;;;;;;;;;;;;;;;;4997262;28;20417;-93
2023/03/12 20:04:10;;;;;;;;;;;;;;;;;;4981368;28;19923;-94
2023/03/12 20:06:36;;;;;;;;;;;;;;;;;;4981674;28;19968;-95
2023/03/12 20:09:03;;;;;;;;;;;;;;;;;;4971906;28;19921;-93
2023/03/12 20:22:35;;;;;;;;;;;;;;;;;;5592640;23;20029;-95
2023/03/12 20:25:05;;;;;;;;;;;;;;;;;;4977937;28;19922;-93
2023/03/12 20:27:34;;;;;;;;;;;;;;;;;;4962230;28;19929;-95
2023/03/12 20:38:43;;;;;;;;;;;;;;;;;;5614095;23;20080;-93
2023/03/12 20:44:33;;;;;;;;;;;;;;;;;;4994118;28;19921;-96
2023/03/12 20:47:08;;;;;;;;;;;;;;;;;;4960975;28;20000;-96
2023/03/12 20:49:37;;;;;;;;;;;;;;;;;;4961487;28;20327;-96
2023/03/12 20:52:08;;;;;;;;;;;;;;;;;;4965479;28;19978;-96
2023/03/12 20:54:37;;;;;;;;;;;;;;;;;;4977445;28;20013;-91
2023/03/12 20:57:03;;;;;;;;;;;;;;;;;;4976298;28;19922;-91
2023/03/12 20:59:38;;;;;;;;;;;;;;;;;;4961404;28;19945;-96
2023/03/12 21:02:06;;;;;;;;;;;;;;;;;;4961364;28;20021;-96
2023/03/12 21:04:32;;;;;;;;;;;;;;;;;;4963170;28;19922;-94
2023/03/12 21:07:14;;;;;;;;;;;;;;;;;;4961254;28;19922;-94
2023/03/12 21:09:42;;;;;;;;;;;;;;;;;;4976692;28;19926;-95
2023/03/12 21:12:08;;;;;;;;;;;;;;;;;;4960745;28;19945;-94
2023/03/12 21:14:34;;;;;;;;;;;;;;;;;;4961119;28;19921;-95
2023/03/12 21:17:07;;;;;;;;;;;;;;;;;;4977852;28;19928;-92
2023/03/12 21:19:33;;;;;;;;;;;;;;;;;;4960509;28;19922;-94
2023/03/12 21:22:00;;;;;;;;;;;;;;;;;;4976215;28;19929;-93
2023/03/12 21:24:27;;;;;;;;;;;;;;;;;;4962458;28;20294;-96
2023/03/12 21:26:53;;;;;;;;;;;;;;;;;;4977020;28;19921;-95
2023/03/12 21:29:37;;;;;;;;;;;;;;;;;;4960917;28;19928;-95
2023/03/12 21:32:03;;;;;;;;;;;;;;;;;;4960402;28;19938;-94
2023/03/12 21:34:29;;;;;;;;;;;;;;;;;;4959862;28;19945;-94
2023/03/12 21:36:55;;;;;;;;;;;;;;;;;;4961338;28;19929;-95
2023/03/12 21:42:29;;;;;;;;;;;;;;;;;;4979053;28;19926;-95
2023/03/12 21:44:55;;;;;;;;;;;;;;;;;;4960228;28;19926;-96
2023/03/12 21:50:41;;;;;;;;;;;;;;;;;;4996899;28;19956;-96
2023/03/12 21:53:07;;;;;;;;;;;;;;;;;;4975758;28;20371;-90
2023/03/12 21:55:33;;;;;;;;;;;;;;;;;;4959888;28;19921;-94
2023/03/12 21:57:59;;;;;;;;;;;;;;;;;;4959953;28;19922;-94
2023/03/12 22:00:25;;;;;;;;;;;;;;;;;;4959901;28;19929;-92
2023/03/12 22:02:51;;;;;;;;;;;;;;;;;;4975488;28;19971;-92
2023/03/12 22:05:17;;;;;;;;;;;;;;;;;;4959567;28;19922;-93
2023/03/12 22:07:42;;;;;;;;;;;;;;;;;;4959625;28;19922;-94
2023/03/12 22:10:10;;;;;;;;;;;;;;;;;;4959708;28;19928;-94
2023/03/12 22:12:36;;;;;;;;;;;;;;;;;;4959791;28;19945;-94
2023/03/12 22:15:02;;;;;;;;;;;;;;;;;;4959588;28;20374;-93
2023/03/12 22:17:29;;;;;;;;;;;;;;;;;;4959705;28;20442;-94
2023/03/12 22:19:55;;;;;;;;;;;;;;;;;;4959452;28;20061;-93
2023/03/12 22:22:21;;;;;;;;;;;;;;;;;;4959764;28;20294;-94
2023/03/12 22:24:46;;;;;;;;;;;;;;;;;;4975708;28;19929;-93